• Join FlightAware (Why Join?)
  • Login
  • US Flag 
06:09PM EDT


 

Airport Tracker/Info


-or-


 

Live Flight TrackerFlight Track Log ✈ RPA1079 ✈ 04-Jul-2012 ✈ KDEN - KICT

Flight Track Log - Related Links

Times and Time Zones

All times are in EDT time to prevent confusion due to time zone crossing. See the RPA1079 flight status page for this flight to view local times or setup timezone preferences in your user account.

Time Position Orientation Groundspeed Altitude Reporting Facility
EDT Latitude Longitude Course Direction KTS MPH feet Rate Location/Type
12:44PM 39.8667 -104.5500 113° Southeast 230 265 7,300  Level Denver TRACON
12:45PM 39.8333 -104.4500 102° East 294 338 9,300 2,340 Climbing Denver TRACON
12:46PM 39.8167 -104.3500 95° East 320 368 11,800 2,580 Climbing Denver TRACON
12:47PM 39.8108 -104.2550 100° East 326 375 13,900 2,580 Climbing Denver Center
12:48PM 39.7947 -104.1347 100° East 337 388 16,500 2,400 Climbing Denver Center
12:49PM 39.7761 -103.9967 100° East 359 413 18,900 2,160 Climbing Denver Center
12:50PM 39.7572 -103.8625 99° East 374 430 21,100 2,100 Climbing Denver Center
12:51PM 39.7383 -103.7086 96° East 383 441 23,300 1,860 Climbing Denver Center
12:52PM 39.7267 -103.5708 96° East 401 461 25,100 1,860 Climbing Denver Center
12:53PM 39.7136 -103.4028 96° East 413 475 27,200 1,680 Climbing Denver Center
12:54PM 39.7008 -103.2575 102° East 421 484 28,700 1,380 Climbing Denver Center
12:55PM 39.6722 -103.0869 104° East 432 497 30,100 1,080 Climbing Denver Center
12:56PM 39.6431 -102.9378 104° East 439 505 31,000 1,260 Climbing Denver Center
12:57PM 39.6086 -102.7636 105° East 446 513 32,800 1,440 Climbing Denver Center
12:58PM 39.5786 -102.6147 105° East 447 514 34,100 1,440 Climbing Denver Center
12:59PM 39.5433 -102.4436 105° East 443 510 35,800 1,260 Climbing Denver Center
01:00PM 39.5133 -102.2978 105° East 440 506 36,800 1,140 Climbing Denver Center
01:01PM 39.4781 -102.1283 105° East 438 504 38,200 960 Climbing Denver Center
01:02PM 39.4494 -101.9856 105° East 432 497 38,900 360 Climbing Denver Center
01:03PM 39.4142 -101.8183 106° East 432 497 39,000  Climbing Denver Center
01:05PM 39.3828 -101.6772 116° Southeast 429 494 39,000  Level Denver Center
01:06PM 39.3239 -101.5222 116° Southeast 431 496 39,000  Level Denver Center
01:07PM 39.2736 -101.3894 116° Southeast 432 497 39,000  Level Denver Center
01:08PM 39.2161 -101.2350 117° Southeast 430 495 39,000  Level Denver Center
01:09PM 39.1650 -101.1033 116° Southeast 430 495 39,000  Level Denver Center
01:10PM 39.1058 -100.9478 116° Southeast 432 497 39,000  Level Denver Center
01:11PM 39.0461 -100.7936 116° Southeast 432 497 39,000  Level Denver Center
01:12PM 38.9986 -100.6678 116° Southeast 434 499 39,000  Level Denver Center
01:13PM 38.9392 -100.5122 117° Southeast 434 499 39,000  Level Denver Center
01:14PM 38.8878 -100.3811 117° Southeast 431 496 39,000  Level Denver Center
01:15PM 38.8278 -100.2281 116° Southeast 430 495 39,000  Level Denver Center
01:16PM 38.7767 -100.0961 117° Southeast 431 496 39,000  Level Denver Center
01:17PM 38.7161 -99.9442 117° Southeast 429 494 39,000 -660 Level Denver Center
01:18PM 38.6642 -99.8139 117° Southeast 429 494 37,700 -1,740 Descending Denver Center
01:19PM 38.6036 -99.6633 117° Southeast 426 490 35,400 -2,160 Descending Denver Center
01:20PM 38.5525 -99.5342 117° Southeast 425 489 33,300 -2,160 Descending Denver Center
01:21PM 38.4897 -99.3794 117° Southeast 435 501 30,900 -2,280 Descending Denver Center
01:22PM 38.4328 -99.2375 117° Southeast 436 502 28,700 -2,160 Descending Kansas City Center
01:23PM 38.3794 -99.1069 116° Southeast 428 493 26,600 -2,040 Descending Kansas City Center
01:24PM 38.3319 -98.9850 119° Southeast 407 468 24,700 -1,920 Descending Kansas City Center
01:25PM 38.2800 -98.8653 118° Southeast 392 451 22,800 -1,920 Descending Kansas City Center
01:26PM 38.2319 -98.7489 117° Southeast 381 438 20,900 -1,860 Descending Kansas City Center
01:27PM 38.1842 -98.6300 119° Southeast 381 438 19,100 -1,800 Descending Kansas City Center
01:28PM 38.1378 -98.5217 118° Southeast 376 433 17,400 -1,740 Descending Kansas City Center
01:29PM 38.0933 -98.4136 119° Southeast 359 413 15,700 -1,680 Descending Kansas City Center
01:30PM 38.0506 -98.3167 119° Southeast 343 395 14,100 -1,680 Descending Kansas City Center
01:31PM 38.0019 -98.2033 120° Southeast 343 395 12,500 -1,560 Descending Kansas City Center
01:32PM 37.9550 -98.0983 117° Southeast 343 395 11,000 -1,260 Descending Kansas City Center
01:33PM 37.9144 -97.9964 119° Southeast 323 372 10,000 -1,260 Descending Kansas City Center
01:34PM 37.8772 -97.9106 115° Southeast 287 330 8,500 -1,560 Descending Kansas City Center
01:35PM 37.8461 -97.8275 118° Southeast 294 338 6,900 -1,680 Descending Kansas City Center
01:36PM 37.8108 -97.7419 122° Southeast 284 327 5,200 -1,260 Descending Kansas City Center
01:37PM 37.7675 -97.6533 99° East 276 318 4,400 -780 Descending Kansas City Center
01:38PM 37.7572 -97.5689 101° East 262 302 3,700 -720 Descending Kansas City Center
01:39PM 37.7447 -97.4869 109° East 234 269 3,100 -480 Descending Kansas City Center
01:40PM 37.7275 -97.4231 178° South 182 209 2,800 -600 Descending Kansas City Center
01:41PM 37.6942 -97.4219 201° Southwest 137 158 2,000 -780 Descending Kansas City Center
01:42PM 37.6644 -97.4364 181° South 126 145 1,400 -360 Descending Kansas City Center
01:43PM 37.6269 -97.4375 69° East 112 129 1,300 -120 Descending Kansas City Center
01:51PM 37.6333 -97.4167 322° Northwest  Level FlightAware Approximate
01:52PM 37.7170 -97.4993 142° Southeast  Level Estimated
01:53PM 37.6333 -97.4167 142° Southeast  Level FlightAware Approximate